createdAt,value
2023-05-05T00:02:03.323Z,9.05
2023-05-05T00:04:49.123Z,10.98
2023-05-05T00:10:50.269Z,9.82
2023-05-05T00:13:36.663Z,10.75
2023-05-05T00:16:23.922Z,8.43
2023-05-05T00:19:09.936Z,7.93
2023-05-05T00:21:56.411Z,11.55
2023-05-05T00:24:42.821Z,8.93
2023-05-05T00:30:56.796Z,12.38
2023-05-05T00:33:51.259Z,7.22
2023-05-05T00:36:43.596Z,7.80
2023-05-05T00:39:36.492Z,8.57
2023-05-05T00:42:28.686Z,14.20
2023-05-05T00:45:21.318Z,9.40
2023-05-05T00:48:14.036Z,8.02
2023-05-05T00:51:08.710Z,7.57
2023-05-05T00:54:01.964Z,8.00
2023-05-05T00:56:54.851Z,8.65
2023-05-05T00:59:47.629Z,10.50
2023-05-05T01:02:41.117Z,8.57
2023-05-05T01:05:46.529Z,8.07
2023-05-05T01:08:48.043Z,8.00
2023-05-05T01:11:47.260Z,11.70
2023-05-05T01:14:40.823Z,10.32
2023-05-05T01:24:40.032Z,9.00
2023-05-05T01:27:49.409Z,8.95
2023-05-05T01:31:02.293Z,9.07
2023-05-05T01:34:01.558Z,10.77
2023-05-05T01:40:43.489Z,8.88
2023-05-05T01:43:36.782Z,9.50
2023-05-05T01:46:31.227Z,14.23
2023-05-05T01:49:25.522Z,8.95
2023-05-05T01:52:18.701Z,10.40
2023-05-05T01:55:12.137Z,9.75
2023-05-05T01:58:06.802Z,10.70
2023-05-05T02:01:00.017Z,8.93
2023-05-05T02:03:55.647Z,19.27
2023-05-05T02:07:11.151Z,8.70
2023-05-05T02:10:04.351Z,8.65
2023-05-05T02:13:02.723Z,10.32
2023-05-05T02:15:55.822Z,9.18
2023-05-05T02:18:49.545Z,13.32
2023-05-05T02:21:42.067Z,9.23
2023-05-05T02:24:36.663Z,10.57
2023-05-05T02:27:32.151Z,11.82
2023-05-05T02:33:18.078Z,11.95
2023-05-05T02:36:14.360Z,12.15
2023-05-05T02:39:19.940Z,10.20
2023-05-05T02:42:42.755Z,10.05
2023-05-05T02:45:36.932Z,10.88
2023-05-05T02:48:30.452Z,14.07
2023-05-05T02:51:27.557Z,13.30
2023-05-05T02:54:22.231Z,14.45
2023-05-05T02:57:19.646Z,15.63
2023-05-05T03:00:25.233Z,13.60
2023-05-05T03:03:23.309Z,13.95
2023-05-05T03:06:19.484Z,12.88
2023-05-05T03:09:21.429Z,17.83
2023-05-05T03:15:31.521Z,14.82
2023-05-05T03:21:42.750Z,14.98
2023-05-05T03:24:35.858Z,15.82
2023-05-05T03:27:32.523Z,19.48
2023-05-05T03:30:25.727Z,14.98
2023-05-05T03:33:20.498Z,14.75
2023-05-05T03:36:12.707Z,16.05
2023-05-05T03:39:06.075Z,15.05
2023-05-05T03:41:59.672Z,17.55
2023-05-05T03:44:56.982Z,19.90
2023-05-05T03:47:57.384Z,13.20
2023-05-05T03:50:51.152Z,19.17
2023-05-05T03:56:58.167Z,12.77
2023-05-05T03:59:51.762Z,11.38
2023-05-05T04:02:44.976Z,9.68
2023-05-05T04:05:39.803Z,11.68
2023-05-05T04:08:35.004Z,10.75
2023-05-05T04:11:52.861Z,13.50
2023-05-05T04:14:45.758Z,14.82
2023-05-05T04:17:40.168Z,10.63
2023-05-05T04:20:32.676Z,8.50
2023-05-05T04:23:26.106Z,9.05
2023-05-05T04:29:33.472Z,18.13
2023-05-05T04:32:26.962Z,12.82
2023-05-05T04:35:19.945Z,10.80
2023-05-05T04:38:13.069Z,9.52
2023-05-05T04:44:17.405Z,9.75
2023-05-05T04:47:14.682Z,11.18
2023-05-05T04:50:09.034Z,14.60
2023-05-05T04:56:14.162Z,16.17
2023-05-05T05:02:24.641Z,9.75
2023-05-05T05:05:17.912Z,8.48
2023-05-05T05:08:11.027Z,9.85
2023-05-05T05:11:06.288Z,9.87
2023-05-05T05:13:58.825Z,8.95
2023-05-05T05:16:52.379Z,9.77
2023-05-05T05:23:04.468Z,8.55
2023-05-05T05:29:12.135Z,7.55
2023-05-05T05:32:04.934Z,9.60
2023-05-05T05:34:51.753Z,9.98
2023-05-05T05:37:45.825Z,11.50
2023-05-05T05:40:40.464Z,7.45
2023-05-05T05:43:33.602Z,8.80
2023-05-05T05:46:25.752Z,9.48
2023-05-05T05:49:19.058Z,9.55
2023-05-05T05:52:12.177Z,16.35
2023-05-05T05:58:35.845Z,7.32
2023-05-05T06:01:28.694Z,10.00
2023-05-05T06:04:21.774Z,7.43
2023-05-05T06:07:14.983Z,13.50
2023-05-05T06:10:25.564Z,11.32
2023-05-05T06:13:22.579Z,11.48
2023-05-05T06:16:18.130Z,7.97
2023-05-05T06:19:11.938Z,8.27
2023-05-05T06:22:04.920Z,7.43
2023-05-05T06:24:58.019Z,7.43
2023-05-05T06:27:51.037Z,6.72
2023-05-05T06:30:43.532Z,7.05
2023-05-05T06:33:37.455Z,7.50
2023-05-05T06:36:29.794Z,6.28
2023-05-05T06:39:23.131Z,10.57
2023-05-05T06:42:15.639Z,6.70
2023-05-05T06:48:38.135Z,10.50
2023-05-05T06:51:31.264Z,9.45
2023-05-05T06:54:23.941Z,26.52
2023-05-05T07:00:38.122Z,18.92
2023-05-05T07:06:38.991Z,21.98
2023-05-05T07:09:31.999Z,19.42
2023-05-05T07:12:25.029Z,19.83
2023-05-05T07:15:27.384Z,25.45
2023-05-05T07:18:21.805Z,18.20
2023-05-05T07:21:15.035Z,14.68
2023-05-05T07:24:09.460Z,18.20
2023-05-05T07:27:02.519Z,15.73
2023-05-05T07:29:54.584Z,12.52
2023-05-05T07:36:33.874Z,11.25
2023-05-05T07:40:04.105Z,11.55
2023-05-05T07:42:57.928Z,17.02
2023-05-05T07:46:23.057Z,12.68
2023-05-05T07:49:16.169Z,13.27
2023-05-05T07:52:09.055Z,22.15
2023-05-05T07:58:11.579Z,17.95
2023-05-05T08:01:06.301Z,16.75
2023-05-05T08:04:06.515Z,14.70
2023-05-05T08:06:59.854Z,19.67
2023-05-05T08:10:10.306Z,15.70
2023-05-05T08:13:00.040Z,14.07
2023-05-05T08:15:54.727Z,13.75
2023-05-05T08:18:47.679Z,21.73
2023-05-05T08:21:39.928Z,14.57
2023-05-05T08:24:33.290Z,18.98
2023-05-05T08:27:26.098Z,17.60
2023-05-05T08:30:20.756Z,20.75
2023-05-05T08:33:15.258Z,14.60
2023-05-05T08:36:08.795Z,20.85
2023-05-05T08:39:01.827Z,15.27
2023-05-05T08:41:54.887Z,20.65
2023-05-05T08:47:57.153Z,14.50
2023-05-05T08:50:54.031Z,20.38
2023-05-05T08:53:58.058Z,19.60
2023-05-05T08:56:51.546Z,17.60
2023-05-05T08:59:44.503Z,15.18
2023-05-05T09:02:37.219Z,16.05
2023-05-05T09:05:29.548Z,19.33
2023-05-05T09:08:23.628Z,13.75
2023-05-05T09:11:15.595Z,12.30
2023-05-05T09:14:07.634Z,16.73
2023-05-05T09:17:00.024Z,12.77
2023-05-05T09:20:03.664Z,12.07
2023-05-05T09:22:55.699Z,14.85
2023-05-05T09:26:03.658Z,13.93
2023-05-05T09:28:55.975Z,15.88
2023-05-05T09:32:14.064Z,13.45
2023-05-05T09:35:07.236Z,13.40
2023-05-05T09:38:12.235Z,14.80
2023-05-05T09:41:06.517Z,13.05
2023-05-05T09:43:59.279Z,17.98
2023-05-05T09:46:55.038Z,14.48
2023-05-05T09:49:57.914Z,14.68
2023-05-05T09:52:57.145Z,13.13
2023-05-05T09:55:56.464Z,12.52
2023-05-05T09:58:50.017Z,13.00
2023-05-05T10:01:43.749Z,11.48
2023-05-05T10:04:37.009Z,12.18
2023-05-05T10:07:29.716Z,12.48
2023-05-05T10:10:21.790Z,15.18
2023-05-05T10:13:15.839Z,10.80
2023-05-05T10:19:32.310Z,14.40
2023-05-05T10:22:26.040Z,11.05
2023-05-05T10:25:22.900Z,12.18
2023-05-05T10:28:22.552Z,12.68
2023-05-05T10:34:30.569Z,6.00
2023-05-05T10:40:33.896Z,7.80
2023-05-05T10:43:19.774Z,6.10
2023-05-05T10:46:06.102Z,3.58
2023-05-05T10:48:57.532Z,6.20
2023-05-05T10:51:51.662Z,5.65
2023-05-05T10:54:40.606Z,4.00
2023-05-05T10:57:28.005Z,3.22
2023-05-05T11:00:49.989Z,3.15
2023-05-05T11:07:27.336Z,3.65
2023-05-05T11:13:36.250Z,5.93
2023-05-05T11:16:45.720Z,8.32
2023-05-05T11:19:48.059Z,3.17
2023-05-05T11:23:18.332Z,4.70
2023-05-05T11:26:16.980Z,4.45
2023-05-05T11:29:09.922Z,5.38
2023-05-05T11:32:12.692Z,3.70
2023-05-05T11:35:06.129Z,5.35
2023-05-05T11:38:04.586Z,6.93
2023-05-05T11:44:13.513Z,7.65
2023-05-05T11:47:34.249Z,5.60
2023-05-05T11:53:31.750Z,2.30
2023-05-05T11:59:53.784Z,4.45
2023-05-05T12:02:46.316Z,7.35
2023-05-05T12:08:42.045Z,3.75
2023-05-05T12:11:34.830Z,5.50
2023-05-05T12:17:45.751Z,8.40
2023-05-05T12:23:55.470Z,5.47
2023-05-05T12:26:47.678Z,3.95
2023-05-05T12:29:40.239Z,2.45
2023-05-05T12:32:32.830Z,2.85
2023-05-05T12:38:48.145Z,3.80
2023-05-05T12:41:41.224Z,3.23
2023-05-05T12:44:37.291Z,4.57
2023-05-05T12:50:42.249Z,3.53
2023-05-05T12:53:35.012Z,5.15
2023-05-05T12:56:34.245Z,4.38
2023-05-05T13:02:35.616Z,3.28
2023-05-05T13:05:31.580Z,4.05
2023-05-05T13:08:43.041Z,4.30
2023-05-05T13:11:38.069Z,7.28
2023-05-05T13:14:31.481Z,5.68
2023-05-05T13:20:36.278Z,2.90
2023-05-05T13:23:28.890Z,2.47
2023-05-05T13:26:17.526Z,3.88
2023-05-05T13:29:11.145Z,4.80
2023-05-05T13:32:04.259Z,5.22
2023-05-05T13:34:57.764Z,5.93
2023-05-05T13:37:50.310Z,6.63
2023-05-05T13:40:42.964Z,6.97
2023-05-05T13:43:35.753Z,4.90
2023-05-05T13:46:29.645Z,4.53
2023-05-05T13:49:21.931Z,3.72
2023-05-05T13:52:15.104Z,8.25
2023-05-05T13:55:32.982Z,6.73
2023-05-05T13:58:25.694Z,4.22
2023-05-05T14:01:17.919Z,3.60
2023-05-05T14:07:24.656Z,4.15
2023-05-05T14:10:17.293Z,4.88
2023-05-05T14:13:10.163Z,4.80
2023-05-05T14:16:02.643Z,3.83
2023-05-05T14:18:55.266Z,4.03
2023-05-05T14:22:25.188Z,3.80
2023-05-05T14:25:19.569Z,4.22
2023-05-05T14:28:29.300Z,4.10
2023-05-05T14:31:19.084Z,5.05
2023-05-05T14:34:12.080Z,4.90
2023-05-05T14:37:06.888Z,5.97
2023-05-05T14:39:59.847Z,16.48
2023-05-05T14:42:54.611Z,10.88
2023-05-05T14:45:47.077Z,9.50
2023-05-05T14:48:40.155Z,15.45
2023-05-05T14:51:33.096Z,10.32
2023-05-05T14:54:28.880Z,12.48
2023-05-05T14:57:21.944Z,8.50
2023-05-05T15:00:17.166Z,7.38
2023-05-05T15:03:10.148Z,8.68
2023-05-05T15:06:02.981Z,9.02
2023-05-05T15:12:08.494Z,7.90
2023-05-05T15:15:01.386Z,5.75
2023-05-05T15:17:55.571Z,9.65
2023-05-05T15:20:48.058Z,9.45
2023-05-05T15:23:41.134Z,6.07
2023-05-05T15:26:33.914Z,6.00
2023-05-05T15:29:26.844Z,3.50
2023-05-05T15:32:20.232Z,2.70
2023-05-05T15:38:10.049Z,2.35
2023-05-05T15:41:02.549Z,2.85
2023-05-05T15:44:59.835Z,3.00
2023-05-05T15:47:53.587Z,5.57
2023-05-05T15:50:46.036Z,2.20
2023-05-05T15:53:39.196Z,2.13
2023-05-05T15:56:31.883Z,4.38
2023-05-05T15:59:25.319Z,3.17
2023-05-05T16:02:19.691Z,7.05
2023-05-05T16:05:12.276Z,2.17
2023-05-05T16:08:09.412Z,4.30
2023-05-05T16:14:14.281Z,2.20
2023-05-05T16:17:07.453Z,1.40
2023-05-05T16:20:01.619Z,1.38
2023-05-05T16:26:07.269Z,1.60
2023-05-05T16:35:11.727Z,3.58
2023-05-05T16:41:16.324Z,2.22
2023-05-05T16:44:08.903Z,4.45
2023-05-05T16:47:06.383Z,5.07
2023-05-05T16:49:58.742Z,3.20
2023-05-05T16:52:53.189Z,6.88
2023-05-05T16:55:45.947Z,6.07
2023-05-05T16:58:38.764Z,5.22
2023-05-05T17:01:30.680Z,3.50
2023-05-05T17:04:22.788Z,2.65
2023-05-05T17:07:14.823Z,3.33
2023-05-05T17:10:10.581Z,1.23
2023-05-05T17:13:02.885Z,2.20
2023-05-05T17:15:56.529Z,2.28
2023-05-05T17:18:48.679Z,1.65
2023-05-05T17:21:42.695Z,3.85
2023-05-05T17:24:34.774Z,3.17
2023-05-05T17:27:29.224Z,5.47
2023-05-05T17:30:22.213Z,2.92
2023-05-05T17:33:16.663Z,2.45
2023-05-05T17:36:09.627Z,3.42
2023-05-05T17:39:01.640Z,4.57
2023-05-05T17:41:53.932Z,2.80
2023-05-05T17:44:48.111Z,1.52
2023-05-05T17:47:40.980Z,3.45
2023-05-05T17:50:34.081Z,1.67
2023-05-05T17:56:36.666Z,4.68
2023-05-05T17:59:28.936Z,3.10
2023-05-05T18:02:23.969Z,2.38
2023-05-05T18:05:17.245Z,4.43
2023-05-05T18:08:09.679Z,4.35
2023-05-05T18:14:04.313Z,2.45
2023-05-05T18:16:57.246Z,1.88
2023-05-05T18:19:51.418Z,2.95
2023-05-05T18:22:45.386Z,5.43
2023-05-05T18:25:37.917Z,4.80
2023-05-05T18:28:31.079Z,6.07
2023-05-05T18:31:24.225Z,3.72
2023-05-05T18:34:17.808Z,7.43
2023-05-05T18:37:23.607Z,6.88
2023-05-05T18:40:16.211Z,8.93
2023-05-05T18:43:09.601Z,4.22
2023-05-05T18:46:02.027Z,5.65
2023-05-05T18:48:55.535Z,3.88
2023-05-05T18:51:47.851Z,6.85
2023-05-05T18:54:42.206Z,6.65
2023-05-05T18:57:34.739Z,6.45
2023-05-05T19:00:26.987Z,5.68
2023-05-05T19:03:20.474Z,3.70
2023-05-05T19:06:12.786Z,4.65
2023-05-05T19:09:04.985Z,3.30
2023-05-05T19:11:59.650Z,4.40
2023-05-05T19:14:51.863Z,4.22
2023-05-05T19:17:45.264Z,4.03
2023-05-05T19:21:02.865Z,2.80
2023-05-05T19:23:55.899Z,2.85
2023-05-05T19:26:48.923Z,4.07
2023-05-05T19:29:43.527Z,6.85
2023-05-05T19:32:36.191Z,4.55
2023-05-05T19:35:30.196Z,5.55
2023-05-05T19:38:48.546Z,4.53
2023-05-05T19:41:40.815Z,4.63
2023-05-05T19:44:33.483Z,4.15
2023-05-05T19:47:27.417Z,5.55
2023-05-05T19:50:20.522Z,4.82
2023-05-05T19:53:14.169Z,4.50
2023-05-05T19:56:07.324Z,9.50
2023-05-05T20:02:21.858Z,12.73
2023-05-05T20:09:02.422Z,10.35
2023-05-05T20:11:55.737Z,13.45
2023-05-05T20:18:23.889Z,14.98
2023-05-05T20:21:54.230Z,17.52
2023-05-05T20:24:48.652Z,16.77
2023-05-05T20:28:10.434Z,36.17
2023-05-05T20:31:03.060Z,18.83
2023-05-05T20:34:34.177Z,181.40
2023-05-05T20:37:27.091Z,207.48
2023-05-05T20:40:21.059Z,53.58
2023-05-05T20:43:14.110Z,78.80
2023-05-05T20:46:12.285Z,161.32
2023-05-05T20:49:05.875Z,87.53
2023-05-05T20:51:59.453Z,38.80
2023-05-05T20:54:52.174Z,47.38
2023-05-05T20:57:45.980Z,39.45
2023-05-05T21:00:38.956Z,58.75
2023-05-05T21:03:32.353Z,79.25
2023-05-05T21:06:51.684Z,88.90
2023-05-05T21:09:47.607Z,92.85
2023-05-05T21:13:06.571Z,84.20
2023-05-05T21:15:58.799Z,71.80
2023-05-05T21:19:28.189Z,73.43
2023-05-05T21:22:21.622Z,60.50
2023-05-05T21:25:15.697Z,61.35
2023-05-05T21:28:09.179Z,65.65
2023-05-05T21:31:20.462Z,84.05
2023-05-05T21:34:13.861Z,98.13
2023-05-05T21:37:07.648Z,78.03
2023-05-05T21:40:00.272Z,98.15
2023-05-05T21:46:07.766Z,88.53
2023-05-05T21:52:17.758Z,91.75
2023-05-05T21:55:11.161Z,102.85
2023-05-05T21:58:01.600Z,87.22
2023-05-05T22:00:54.049Z,104.50
2023-05-05T22:03:48.628Z,89.93
2023-05-05T22:06:40.766Z,97.65
2023-05-05T22:09:27.304Z,97.78
2023-05-05T22:12:19.984Z,91.32
2023-05-05T22:15:13.190Z,134.68
2023-05-05T22:18:06.430Z,121.78
2023-05-05T22:21:00.148Z,92.03
2023-05-05T22:23:56.750Z,98.78
2023-05-05T22:26:48.849Z,97.68
2023-05-05T22:33:02.916Z,88.60
2023-05-05T22:39:44.210Z,86.03
2023-05-05T22:43:14.179Z,86.93
2023-05-05T22:46:06.801Z,80.15
2023-05-05T22:49:17.563Z,95.60
2023-05-05T22:52:07.332Z,81.97
2023-05-05T22:55:01.381Z,72.30
2023-05-05T22:57:54.039Z,75.63
2023-05-05T23:00:47.095Z,84.47
2023-05-05T23:03:39.739Z,60.35
2023-05-05T23:06:32.052Z,58.90
2023-05-05T23:09:24.886Z,56.63
2023-05-05T23:12:19.314Z,66.30
2023-05-05T23:15:12.613Z,62.75
2023-05-05T23:18:05.787Z,65.28
2023-05-05T23:20:58.281Z,66.68
2023-05-05T23:23:50.581Z,68.03
2023-05-05T23:26:42.868Z,59.05
2023-05-05T23:29:37.392Z,52.95
2023-05-05T23:32:29.819Z,56.58
2023-05-05T23:35:23.119Z,55.20
2023-05-05T23:38:09.142Z,49.28
2023-05-05T23:40:55.331Z,60.70
2023-05-05T23:43:41.346Z,56.83
2023-05-05T23:46:29.127Z,54.90
2023-05-05T23:52:23.832Z,71.22
2023-05-05T23:58:26.445Z,56.35
